sensor_id;sensor_type;location;lat;lon;timestamp;temperature;humidity
70271;SHT31;57680;54.292;18.598;2024-02-23T00:01:28;7.12;96.17
70271;SHT31;57680;54.292;18.598;2024-02-23T00:03:53;7.13;96.18
70271;SHT31;57680;54.292;18.598;2024-02-23T00:06:18;7.07;96.14
70271;SHT31;57680;54.292;18.598;2024-02-23T00:08:44;7.09;96.19
70271;SHT31;57680;54.292;18.598;2024-02-23T00:11:09;7.07;96.17
70271;SHT31;57680;54.292;18.598;2024-02-23T00:13:35;7.07;96.15
70271;SHT31;57680;54.292;18.598;2024-02-23T00:16:00;7.09;96.11
70271;SHT31;57680;54.292;18.598;2024-02-23T00:18:25;7.14;96.24
70271;SHT31;57680;54.292;18.598;2024-02-23T00:20:51;7.17;95.89
70271;SHT31;57680;54.292;18.598;2024-02-23T00:23:16;7.16;95.71
70271;SHT31;57680;54.292;18.598;2024-02-23T00:25:42;7.14;95.73
70271;SHT31;57680;54.292;18.598;2024-02-23T00:28:07;7.22;95.76
70271;SHT31;57680;54.292;18.598;2024-02-23T00:30:33;7.19;95.66
70271;SHT31;57680;54.292;18.598;2024-02-23T00:32:58;7.22;95.73
70271;SHT31;57680;54.292;18.598;2024-02-23T00:35:23;7.23;95.69
70271;SHT31;57680;54.292;18.598;2024-02-23T00:37:49;7.23;95.46
70271;SHT31;57680;54.292;18.598;2024-02-23T00:40:14;7.24;95.46
70271;SHT31;57680;54.292;18.598;2024-02-23T00:42:40;7.23;95.37
70271;SHT31;57680;54.292;18.598;2024-02-23T00:45:05;7.24;95.50
70271;SHT31;57680;54.292;18.598;2024-02-23T00:47:31;7.26;95.39
70271;SHT31;57680;54.292;18.598;2024-02-23T00:49:56;7.26;95.36
70271;SHT31;57680;54.292;18.598;2024-02-23T00:52:21;7.27;95.31
70271;SHT31;57680;54.292;18.598;2024-02-23T00:54:47;7.27;95.25
70271;SHT31;57680;54.292;18.598;2024-02-23T00:57:12;7.24;95.30
70271;SHT31;57680;54.292;18.598;2024-02-23T00:59:37;7.28;95.32
70271;SHT31;57680;54.292;18.598;2024-02-23T01:02:03;7.26;95.38
70271;SHT31;57680;54.292;18.598;2024-02-23T01:04:28;7.28;95.37
70271;SHT31;57680;54.292;18.598;2024-02-23T01:06:53;7.31;95.30
70271;SHT31;57680;54.292;18.598;2024-02-23T01:09:19;7.27;95.35
70271;SHT31;57680;54.292;18.598;2024-02-23T01:11:44;7.27;95.40
70271;SHT31;57680;54.292;18.598;2024-02-23T01:14:09;7.27;95.35
70271;SHT31;57680;54.292;18.598;2024-02-23T01:16:34;7.30;95.36
70271;SHT31;57680;54.292;18.598;2024-02-23T01:19:00;7.31;95.24
70271;SHT31;57680;54.292;18.598;2024-02-23T01:21:25;7.33;95.32
70271;SHT31;57680;54.292;18.598;2024-02-23T01:23:50;7.31;95.20
70271;SHT31;57680;54.292;18.598;2024-02-23T01:26:16;7.35;95.26
70271;SHT31;57680;54.292;18.598;2024-02-23T01:28:41;7.38;95.14
70271;SHT31;57680;54.292;18.598;2024-02-23T01:31:10;7.43;94.99
70271;SHT31;57680;54.292;18.598;2024-02-23T01:33:36;7.44;94.98
70271;SHT31;57680;54.292;18.598;2024-02-23T01:36:02;7.48;95.10
70271;SHT31;57680;54.292;18.598;2024-02-23T01:38:27;7.50;95.29
70271;SHT31;57680;54.292;18.598;2024-02-23T01:40:53;7.50;95.51
70271;SHT31;57680;54.292;18.598;2024-02-23T01:43:18;7.43;95.75
70271;SHT31;57680;54.292;18.598;2024-02-23T01:45:43;7.43;96.22
70271;SHT31;57680;54.292;18.598;2024-02-23T01:48:09;7.42;96.38
70271;SHT31;57680;54.292;18.598;2024-02-23T01:50:34;7.38;96.56
70271;SHT31;57680;54.292;18.598;2024-02-23T01:53:01;7.40;96.72
70271;SHT31;57680;54.292;18.598;2024-02-23T01:55:27;7.35;96.95
70271;SHT31;57680;54.292;18.598;2024-02-23T01:57:53;7.35;97.10
70271;SHT31;57680;54.292;18.598;2024-02-23T02:00:20;7.34;97.24
70271;SHT31;57680;54.292;18.598;2024-02-23T02:02:47;7.31;97.38
70271;SHT31;57680;54.292;18.598;2024-02-23T02:05:12;7.30;97.42
70271;SHT31;57680;54.292;18.598;2024-02-23T02:07:40;7.31;97.40
70271;SHT31;57680;54.292;18.598;2024-02-23T02:10:08;7.33;97.53
70271;SHT31;57680;54.292;18.598;2024-02-23T02:12:34;7.35;97.52
70271;SHT31;57680;54.292;18.598;2024-02-23T02:14:59;7.34;97.47
70271;SHT31;57680;54.292;18.598;2024-02-23T02:17:24;7.38;97.46
70271;SHT31;57680;54.292;18.598;2024-02-23T02:19:50;7.38;97.38
70271;SHT31;57680;54.292;18.598;2024-02-23T02:22:15;7.35;97.39
70271;SHT31;57680;54.292;18.598;2024-02-23T02:24:40;7.40;97.48
70271;SHT31;57680;54.292;18.598;2024-02-23T02:27:06;7.42;97.59
70271;SHT31;57680;54.292;18.598;2024-02-23T02:29:31;7.40;97.65
70271;SHT31;57680;54.292;18.598;2024-02-23T02:31:56;7.43;97.68
70271;SHT31;57680;54.292;18.598;2024-02-23T02:34:22;7.44;97.77
70271;SHT31;57680;54.292;18.598;2024-02-23T02:36:47;7.46;97.88
70271;SHT31;57680;54.292;18.598;2024-02-23T02:39:12;7.47;97.88
70271;SHT31;57680;54.292;18.598;2024-02-23T02:41:38;7.44;98.02
70271;SHT31;57680;54.292;18.598;2024-02-23T02:44:03;7.47;98.16
70271;SHT31;57680;54.292;18.598;2024-02-23T02:46:28;7.44;98.22
70271;SHT31;57680;54.292;18.598;2024-02-23T02:48:54;7.44;98.31
70271;SHT31;57680;54.292;18.598;2024-02-23T02:51:19;7.44;98.42
70271;SHT31;57680;54.292;18.598;2024-02-23T02:53:44;7.42;98.49
70271;SHT31;57680;54.292;18.598;2024-02-23T02:56:09;7.42;98.59
70271;SHT31;57680;54.292;18.598;2024-02-23T02:58:35;7.43;98.63
70271;SHT31;57680;54.292;18.598;2024-02-23T03:01:00;7.40;98.65
70271;SHT31;57680;54.292;18.598;2024-02-23T03:03:26;7.40;98.77
70271;SHT31;57680;54.292;18.598;2024-02-23T03:05:51;7.40;98.76
70271;SHT31;57680;54.292;18.598;2024-02-23T03:08:16;7.40;98.81
70271;SHT31;57680;54.292;18.598;2024-02-23T03:10:41;7.42;98.82
70271;SHT31;57680;54.292;18.598;2024-02-23T03:13:07;7.43;98.89
70271;SHT31;57680;54.292;18.598;2024-02-23T03:15:32;7.42;98.93
70271;SHT31;57680;54.292;18.598;2024-02-23T03:17:57;7.42;98.91
70271;SHT31;57680;54.292;18.598;2024-02-23T03:20:23;7.43;98.92
70271;SHT31;57680;54.292;18.598;2024-02-23T03:22:48;7.42;98.91
70271;SHT31;57680;54.292;18.598;2024-02-23T03:25:13;7.35;98.87
70271;SHT31;57680;54.292;18.598;2024-02-23T03:27:39;7.35;98.97
70271;SHT31;57680;54.292;18.598;2024-02-23T03:30:05;7.37;99.06
70271;SHT31;57680;54.292;18.598;2024-02-23T03:32:31;7.35;99.01
70271;SHT31;57680;54.292;18.598;2024-02-23T03:34:56;7.35;99.05
70271;SHT31;57680;54.292;18.598;2024-02-23T03:37:21;7.38;99.12
70271;SHT31;57680;54.292;18.598;2024-02-23T03:39:47;7.40;99.15
70271;SHT31;57680;54.292;18.598;2024-02-23T03:42:12;7.40;99.15
70271;SHT31;57680;54.292;18.598;2024-02-23T03:44:38;7.46;99.11
70271;SHT31;57680;54.292;18.598;2024-02-23T03:47:03;7.43;99.07
70271;SHT31;57680;54.292;18.598;2024-02-23T03:49:28;7.46;99.12
70271;SHT31;57680;54.292;18.598;2024-02-23T03:51:54;7.46;99.07
70271;SHT31;57680;54.292;18.598;2024-02-23T03:54:19;7.50;99.11
70271;SHT31;57680;54.292;18.598;2024-02-23T03:56:44;7.48;99.07
70271;SHT31;57680;54.292;18.598;2024-02-23T03:59:10;7.51;99.19
70271;SHT31;57680;54.292;18.598;2024-02-23T04:01:36;7.51;99.15
70271;SHT31;57680;54.292;18.598;2024-02-23T04:04:02;7.51;99.23
70271;SHT31;57680;54.292;18.598;2024-02-23T04:06:28;7.53;99.31
70271;SHT31;57680;54.292;18.598;2024-02-23T04:08:53;7.50;99.25
70271;SHT31;57680;54.292;18.598;2024-02-23T04:11:18;7.54;99.35
70271;SHT31;57680;54.292;18.598;2024-02-23T04:13:44;7.51;99.41
70271;SHT31;57680;54.292;18.598;2024-02-23T04:16:09;7.54;99.43
70271;SHT31;57680;54.292;18.598;2024-02-23T04:18:34;7.57;99.44
70271;SHT31;57680;54.292;18.598;2024-02-23T04:20:59;7.55;99.44
70271;SHT31;57680;54.292;18.598;2024-02-23T04:23:25;7.57;99.50
70271;SHT31;57680;54.292;18.598;2024-02-23T04:25:50;7.61;99.44
70271;SHT31;57680;54.292;18.598;2024-02-23T04:28:15;7.60;99.33
70271;SHT31;57680;54.292;18.598;2024-02-23T04:30:41;7.54;99.28
70271;SHT31;57680;54.292;18.598;2024-02-23T04:33:06;7.58;99.33
70271;SHT31;57680;54.292;18.598;2024-02-23T04:35:31;7.54;99.35
70271;SHT31;57680;54.292;18.598;2024-02-23T04:37:56;7.54;99.42
70271;SHT31;57680;54.292;18.598;2024-02-23T04:40:22;7.54;99.38
70271;SHT31;57680;54.292;18.598;2024-02-23T04:42:47;7.55;99.54
70271;SHT31;57680;54.292;18.598;2024-02-23T04:45:12;7.50;99.47
70271;SHT31;57680;54.292;18.598;2024-02-23T04:47:38;7.48;99.41
70271;SHT31;57680;54.292;18.598;2024-02-23T04:50:03;7.48;99.47
70271;SHT31;57680;54.292;18.598;2024-02-23T04:52:29;7.53;99.56
70271;SHT31;57680;54.292;18.598;2024-02-23T04:54:54;7.48;99.45
70271;SHT31;57680;54.292;18.598;2024-02-23T04:57:19;7.53;99.57
70271;SHT31;57680;54.292;18.598;2024-02-23T04:59:45;7.50;99.57
70271;SHT31;57680;54.292;18.598;2024-02-23T05:02:10;7.54;99.57
70271;SHT31;57680;54.292;18.598;2024-02-23T05:04:35;7.58;99.73
70271;SHT31;57680;54.292;18.598;2024-02-23T05:07:01;7.61;99.76
70271;SHT31;57680;54.292;18.598;2024-02-23T05:09:26;7.65;99.73
70271;SHT31;57680;54.292;18.598;2024-02-23T05:11:51;7.70;99.83
70271;SHT31;57680;54.292;18.598;2024-02-23T05:14:17;7.75;99.74
70271;SHT31;57680;54.292;18.598;2024-02-23T05:16:42;7.79;99.57
70271;SHT31;57680;54.292;18.598;2024-02-23T05:19:07;7.82;99.53
70271;SHT31;57680;54.292;18.598;2024-02-23T05:21:33;7.82;99.39
70271;SHT31;57680;54.292;18.598;2024-02-23T05:23:58;7.82;99.29
70271;SHT31;57680;54.292;18.598;2024-02-23T05:26:23;7.82;99.20
70271;SHT31;57680;54.292;18.598;2024-02-23T05:28:48;7.86;99.25
70271;SHT31;57680;54.292;18.598;2024-02-23T05:31:14;7.85;99.18
70271;SHT31;57680;54.292;18.598;2024-02-23T05:33:39;7.88;99.09
70271;SHT31;57680;54.292;18.598;2024-02-23T05:36:05;7.86;99.06
70271;SHT31;57680;54.292;18.598;2024-02-23T05:38:30;7.89;99.22
70271;SHT31;57680;54.292;18.598;2024-02-23T05:40:55;7.94;99.17
70271;SHT31;57680;54.292;18.598;2024-02-23T05:43:21;8.01;99.12
70271;SHT31;57680;54.292;18.598;2024-02-23T05:45:46;8.01;99.02
70271;SHT31;57680;54.292;18.598;2024-02-23T05:48:11;8.03;98.78
70271;SHT31;57680;54.292;18.598;2024-02-23T05:50:36;8.05;98.82
70271;SHT31;57680;54.292;18.598;2024-02-23T05:53:02;8.07;98.76
70271;SHT31;57680;54.292;18.598;2024-02-23T05:55:27;8.12;98.73
70271;SHT31;57680;54.292;18.598;2024-02-23T05:57:52;8.13;98.70
70271;SHT31;57680;54.292;18.598;2024-02-23T06:00:18;8.21;98.49
70271;SHT31;57680;54.292;18.598;2024-02-23T06:02:43;8.21;98.43
70271;SHT31;57680;54.292;18.598;2024-02-23T06:05:09;8.22;98.24
70271;SHT31;57680;54.292;18.598;2024-02-23T06:07:34;8.29;98.22
70271;SHT31;57680;54.292;18.598;2024-02-23T06:09:59;8.26;98.02
70271;SHT31;57680;54.292;18.598;2024-02-23T06:12:25;8.29;97.97
70271;SHT31;57680;54.292;18.598;2024-02-23T06:14:51;8.30;97.94
70271;SHT31;57680;54.292;18.598;2024-02-23T06:17:16;8.32;97.80
70271;SHT31;57680;54.292;18.598;2024-02-23T06:19:41;8.33;97.83
70271;SHT31;57680;54.292;18.598;2024-02-23T06:22:07;8.33;97.76
70271;SHT31;57680;54.292;18.598;2024-02-23T06:24:32;8.36;97.67
70271;SHT31;57680;54.292;18.598;2024-02-23T06:26:58;8.40;97.70
70271;SHT31;57680;54.292;18.598;2024-02-23T06:29:23;8.42;97.57
70271;SHT31;57680;54.292;18.598;2024-02-23T06:31:49;8.42;97.45
70271;SHT31;57680;54.292;18.598;2024-02-23T06:34:14;8.42;97.40
70271;SHT31;57680;54.292;18.598;2024-02-23T06:36:40;8.44;97.51
70271;SHT31;57680;54.292;18.598;2024-02-23T06:39:05;8.46;97.42
70271;SHT31;57680;54.292;18.598;2024-02-23T06:41:30;8.43;97.43
70271;SHT31;57680;54.292;18.598;2024-02-23T06:43:56;8.46;97.39
70271;SHT31;57680;54.292;18.598;2024-02-23T06:46:21;8.47;97.35
70271;SHT31;57680;54.292;18.598;2024-02-23T06:48:46;8.50;97.42
70271;SHT31;57680;54.292;18.598;2024-02-23T06:51:12;8.52;97.26
70271;SHT31;57680;54.292;18.598;2024-02-23T06:53:37;8.56;97.25
70271;SHT31;57680;54.292;18.598;2024-02-23T06:56:03;8.57;97.22
70271;SHT31;57680;54.292;18.598;2024-02-23T06:58:28;8.57;97.07
70271;SHT31;57680;54.292;18.598;2024-02-23T07:00:53;8.63;97.22
70271;SHT31;57680;54.292;18.598;2024-02-23T07:03:19;8.64;97.12
70271;SHT31;57680;54.292;18.598;2024-02-23T07:05:44;8.70;97.03
70271;SHT31;57680;54.292;18.598;2024-02-23T07:08:10;8.74;96.95
70271;SHT31;57680;54.292;18.598;2024-02-23T07:10:35;8.83;96.76
70271;SHT31;57680;54.292;18.598;2024-02-23T07:13:01;8.87;96.58
70271;SHT31;57680;54.292;18.598;2024-02-23T07:15:26;9.03;96.35
70271;SHT31;57680;54.292;18.598;2024-02-23T07:17:52;9.10;95.95
70271;SHT31;57680;54.292;18.598;2024-02-23T07:20:17;9.15;95.51
70271;SHT31;57680;54.292;18.598;2024-02-23T07:22:44;9.18;95.19
70271;SHT31;57680;54.292;18.598;2024-02-23T07:25:09;9.24;94.92
70271;SHT31;57680;54.292;18.598;2024-02-23T07:27:35;9.26;94.78
70271;SHT31;57680;54.292;18.598;2024-02-23T07:30:00;9.31;94.60
70271;SHT31;57680;54.292;18.598;2024-02-23T07:32:25;9.34;94.36
70271;SHT31;57680;54.292;18.598;2024-02-23T07:34:51;9.38;94.18
70271;SHT31;57680;54.292;18.598;2024-02-23T07:37:16;9.43;93.93
70271;SHT31;57680;54.292;18.598;2024-02-23T07:39:41;9.46;93.64
70271;SHT31;57680;54.292;18.598;2024-02-23T07:42:07;9.46;93.46
70271;SHT31;57680;54.292;18.598;2024-02-23T07:44:32;9.47;93.31
70271;SHT31;57680;54.292;18.598;2024-02-23T07:46:57;9.49;93.31
70271;SHT31;57680;54.292;18.598;2024-02-23T07:49:23;9.50;92.99
70271;SHT31;57680;54.292;18.598;2024-02-23T07:51:48;9.49;92.90
70271;SHT31;57680;54.292;18.598;2024-02-23T07:54:13;9.49;92.77
70271;SHT31;57680;54.292;18.598;2024-02-23T07:56:39;9.50;92.52
70271;SHT31;57680;54.292;18.598;2024-02-23T07:59:04;9.47;92.37
70271;SHT31;57680;54.292;18.598;2024-02-23T08:01:29;9.53;91.79
70271;SHT31;57680;54.292;18.598;2024-02-23T08:03:55;9.59;91.18
70271;SHT31;57680;54.292;18.598;2024-02-23T08:06:21;9.66;90.71
70271;SHT31;57680;54.292;18.598;2024-02-23T08:08:46;9.72;90.25
70271;SHT31;57680;54.292;18.598;2024-02-23T08:11:12;9.74;89.34
70271;SHT31;57680;54.292;18.598;2024-02-23T08:13:37;9.80;88.09
70271;SHT31;57680;54.292;18.598;2024-02-23T08:16:03;9.84;87.43
70271;SHT31;57680;54.292;18.598;2024-02-23T08:18:28;9.82;87.06
70271;SHT31;57680;54.292;18.598;2024-02-23T08:20:53;9.86;85.91
70271;SHT31;57680;54.292;18.598;2024-02-23T08:23:19;9.89;85.71
70271;SHT31;57680;54.292;18.598;2024-02-23T08:25:44;9.87;85.47
70271;SHT31;57680;54.292;18.598;2024-02-23T08:28:09;9.91;85.30
70271;SHT31;57680;54.292;18.598;2024-02-23T08:30:35;9.94;84.15
70271;SHT31;57680;54.292;18.598;2024-02-23T08:33:00;9.94;83.73
70271;SHT31;57680;54.292;18.598;2024-02-23T08:35:26;9.97;83.29
70271;SHT31;57680;54.292;18.598;2024-02-23T08:37:51;10.03;81.18
70271;SHT31;57680;54.292;18.598;2024-02-23T08:40:17;9.98;80.96
70271;SHT31;57680;54.292;18.598;2024-02-23T08:42:42;10.03;81.08
70271;SHT31;57680;54.292;18.598;2024-02-23T08:45:08;9.98;80.92
70271;SHT31;57680;54.292;18.598;2024-02-23T08:47:33;9.97;79.22
70271;SHT31;57680;54.292;18.598;2024-02-23T08:49:59;9.94;78.57
70271;SHT31;57680;54.292;18.598;2024-02-23T08:52:24;9.90;77.75
70271;SHT31;57680;54.292;18.598;2024-02-23T08:54:51;9.89;77.84
70271;SHT31;57680;54.292;18.598;2024-02-23T08:57:16;9.84;77.87
70271;SHT31;57680;54.292;18.598;2024-02-23T08:59:42;9.79;76.78
70271;SHT31;57680;54.292;18.598;2024-02-23T09:02:08;9.73;75.65
70271;SHT31;57680;54.292;18.598;2024-02-23T09:04:34;9.73;75.69
70271;SHT31;57680;54.292;18.598;2024-02-23T09:06:59;9.69;75.43
70271;SHT31;57680;54.292;18.598;2024-02-23T09:09:24;9.67;75.90
70271;SHT31;57680;54.292;18.598;2024-02-23T09:11:50;9.65;75.91
70271;SHT31;57680;54.292;18.598;2024-02-23T09:14:15;9.55;76.45
70271;SHT31;57680;54.292;18.598;2024-02-23T09:16:41;9.49;76.69
70271;SHT31;57680;54.292;18.598;2024-02-23T09:19:06;9.52;76.64
70271;SHT31;57680;54.292;18.598;2024-02-23T09:21:31;9.57;75.66
70271;SHT31;57680;54.292;18.598;2024-02-23T09:23:57;9.65;74.72
70271;SHT31;57680;54.292;18.598;2024-02-23T09:26:22;9.65;75.27
70271;SHT31;57680;54.292;18.598;2024-02-23T09:28:47;9.66;75.76
70271;SHT31;57680;54.292;18.598;2024-02-23T09:31:13;9.70;75.40
70271;SHT31;57680;54.292;18.598;2024-02-23T09:33:38;9.77;74.53
70271;SHT31;57680;54.292;18.598;2024-02-23T09:36:04;9.80;72.64
70271;SHT31;57680;54.292;18.598;2024-02-23T09:38:29;9.90;72.76
70271;SHT31;57680;54.292;18.598;2024-02-23T09:40:54;9.93;72.50
70271;SHT31;57680;54.292;18.598;2024-02-23T09:43:21;10.03;71.34
70271;SHT31;57680;54.292;18.598;2024-02-23T09:45:46;10.03;70.53
70271;SHT31;57680;54.292;18.598;2024-02-23T09:48:14;10.10;70.05
70271;SHT31;57680;54.292;18.598;2024-02-23T09:50:41;10.08;69.49
70271;SHT31;57680;54.292;18.598;2024-02-23T09:53:07;10.07;69.44
70271;SHT31;57680;54.292;18.598;2024-02-23T09:55:32;10.10;68.67
70271;SHT31;57680;54.292;18.598;2024-02-23T09:57:58;10.15;68.97
70271;SHT31;57680;54.292;18.598;2024-02-23T10:00:24;10.10;68.33
70271;SHT31;57680;54.292;18.598;2024-02-23T10:02:49;10.17;68.62
70271;SHT31;57680;54.292;18.598;2024-02-23T10:05:16;10.17;68.72
70271;SHT31;57680;54.292;18.598;2024-02-23T10:07:42;10.17;68.13
70271;SHT31;57680;54.292;18.598;2024-02-23T10:10:08;10.20;68.01
70271;SHT31;57680;54.292;18.598;2024-02-23T10:12:34;10.27;66.55
70271;SHT31;57680;54.292;18.598;2024-02-23T10:15:00;10.22;66.84
70271;SHT31;57680;54.292;18.598;2024-02-23T10:17:25;10.22;67.53
70271;SHT31;57680;54.292;18.598;2024-02-23T10:19:51;10.22;67.52
70271;SHT31;57680;54.292;18.598;2024-02-23T10:22:16;10.25;67.76
70271;SHT31;57680;54.292;18.598;2024-02-23T10:24:42;10.25;67.34
70271;SHT31;57680;54.292;18.598;2024-02-23T10:27:07;10.27;68.53
70271;SHT31;57680;54.292;18.598;2024-02-23T10:29:33;10.25;68.58
70271;SHT31;57680;54.292;18.598;2024-02-23T10:31:58;10.24;68.69
70271;SHT31;57680;54.292;18.598;2024-02-23T10:34:26;10.27;67.51
70271;SHT31;57680;54.292;18.598;2024-02-23T10:36:52;10.30;68.12
70271;SHT31;57680;54.292;18.598;2024-02-23T10:39:19;10.38;67.83
70271;SHT31;57680;54.292;18.598;2024-02-23T10:41:51;10.46;66.87
70271;SHT31;57680;54.292;18.598;2024-02-23T10:44:19;10.54;67.02
70271;SHT31;57680;54.292;18.598;2024-02-23T10:46:45;10.55;66.85
70271;SHT31;57680;54.292;18.598;2024-02-23T10:49:12;10.71;66.69
70271;SHT31;57680;54.292;18.598;2024-02-23T10:51:39;10.86;66.30
70271;SHT31;57680;54.292;18.598;2024-02-23T10:54:06;10.96;65.78
70271;SHT31;57680;54.292;18.598;2024-02-23T10:56:31;11.03;65.49
70271;SHT31;57680;54.292;18.598;2024-02-23T10:58:57;11.19;65.65
70271;SHT31;57680;54.292;18.598;2024-02-23T11:01:22;11.28;64.59
70271;SHT31;57680;54.292;18.598;2024-02-23T11:03:49;11.17;64.15
70271;SHT31;57680;54.292;18.598;2024-02-23T11:06:15;11.14;64.49
70271;SHT31;57680;54.292;18.598;2024-02-23T11:08:41;11.09;65.06
70271;SHT31;57680;54.292;18.598;2024-02-23T11:11:10;10.95;64.64
70271;SHT31;57680;54.292;18.598;2024-02-23T11:13:38;10.89;64.82
70271;SHT31;57680;54.292;18.598;2024-02-23T11:16:07;10.76;64.79
70271;SHT31;57680;54.292;18.598;2024-02-23T11:18:36;10.72;65.16
70271;SHT31;57680;54.292;18.598;2024-02-23T11:21:04;10.68;64.47
70271;SHT31;57680;54.292;18.598;2024-02-23T11:23:52;10.69;65.35
70271;SHT31;57680;54.292;18.598;2024-02-23T11:26:18;10.65;66.50
70271;SHT31;57680;54.292;18.598;2024-02-23T11:28:47;10.55;65.91
70271;SHT31;57680;54.292;18.598;2024-02-23T11:31:14;10.56;66.21
70271;SHT31;57680;54.292;18.598;2024-02-23T11:33:39;10.58;66.23
70271;SHT31;57680;54.292;18.598;2024-02-23T11:36:06;10.56;66.04
70271;SHT31;57680;54.292;18.598;2024-02-23T11:38:32;10.62;66.93
70271;SHT31;57680;54.292;18.598;2024-02-23T11:40:58;10.69;68.04
70271;SHT31;57680;54.292;18.598;2024-02-23T11:43:24;10.79;67.66
70271;SHT31;57680;54.292;18.598;2024-02-23T11:45:49;10.77;66.45
70271;SHT31;57680;54.292;18.598;2024-02-23T11:48:15;10.79;65.33
70271;SHT31;57680;54.292;18.598;2024-02-23T11:50:40;10.77;65.44
70271;SHT31;57680;54.292;18.598;2024-02-23T11:53:06;10.77;64.95
70271;SHT31;57680;54.292;18.598;2024-02-23T11:55:31;10.82;65.53
70271;SHT31;57680;54.292;18.598;2024-02-23T11:57:57;10.85;66.00
70271;SHT31;57680;54.292;18.598;2024-02-23T12:00:23;10.91;65.36
70271;SHT31;57680;54.292;18.598;2024-02-23T12:02:48;10.97;65.78
70271;SHT31;57680;54.292;18.598;2024-02-23T12:05:14;11.06;65.94
70271;SHT31;57680;54.292;18.598;2024-02-23T12:07:40;11.06;65.55
70271;SHT31;57680;54.292;18.598;2024-02-23T12:10:06;11.14;65.20
70271;SHT31;57680;54.292;18.598;2024-02-23T12:12:32;11.53;64.94
70271;SHT31;57680;54.292;18.598;2024-02-23T12:14:58;12.05;64.82
70271;SHT31;57680;54.292;18.598;2024-02-23T12:17:23;12.22;63.82
70271;SHT31;57680;54.292;18.598;2024-02-23T12:19:49;12.15;62.20
70271;SHT31;57680;54.292;18.598;2024-02-23T12:22:14;12.16;61.59
70271;SHT31;57680;54.292;18.598;2024-02-23T12:24:41;11.99;62.06
70271;SHT31;57680;54.292;18.598;2024-02-23T12:27:07;11.95;62.97
70271;SHT31;57680;54.292;18.598;2024-02-23T12:29:32;11.65;61.44
70271;SHT31;57680;54.292;18.598;2024-02-23T12:32:04;11.54;63.36
70271;SHT31;57680;54.292;18.598;2024-02-23T12:34:30;11.47;63.72
70271;SHT31;57680;54.292;18.598;2024-02-23T12:36:55;11.55;63.25
70271;SHT31;57680;54.292;18.598;2024-02-23T12:39:20;11.58;63.72
70271;SHT31;57680;54.292;18.598;2024-02-23T12:41:46;11.53;64.32
70271;SHT31;57680;54.292;18.598;2024-02-23T12:44:11;11.40;64.90
70271;SHT31;57680;54.292;18.598;2024-02-23T12:46:36;11.37;65.06
70271;SHT31;57680;54.292;18.598;2024-02-23T12:49:02;11.37;64.52
70271;SHT31;57680;54.292;18.598;2024-02-23T12:51:27;11.40;64.71
70271;SHT31;57680;54.292;18.598;2024-02-23T12:53:52;11.43;64.20
70271;SHT31;57680;54.292;18.598;2024-02-23T12:56:18;11.43;63.93
70271;SHT31;57680;54.292;18.598;2024-02-23T12:58:44;11.45;64.63
70271;SHT31;57680;54.292;18.598;2024-02-23T13:01:10;11.47;64.66
70271;SHT31;57680;54.292;18.598;2024-02-23T13:03:36;11.48;65.59
70271;SHT31;57680;54.292;18.598;2024-02-23T13:06:03;11.55;66.25
70271;SHT31;57680;54.292;18.598;2024-02-23T13:08:28;11.74;66.94
70271;SHT31;57680;54.292;18.598;2024-02-23T13:10:54;11.85;64.90
70271;SHT31;57680;54.292;18.598;2024-02-23T13:13:21;11.78;65.81
70271;SHT31;57680;54.292;18.598;2024-02-23T13:15:47;11.50;66.28
70271;SHT31;57680;54.292;18.598;2024-02-23T13:18:13;11.23;66.12
70271;SHT31;57680;54.292;18.598;2024-02-23T13:20:39;11.03;65.74
70271;SHT31;57680;54.292;18.598;2024-02-23T13:23:05;10.95;66.71
70271;SHT31;57680;54.292;18.598;2024-02-23T13:25:31;10.89;66.26
70271;SHT31;57680;54.292;18.598;2024-02-23T13:27:57;10.80;66.34
70271;SHT31;57680;54.292;18.598;2024-02-23T13:30:23;10.69;66.36
70271;SHT31;57680;54.292;18.598;2024-02-23T13:32:48;10.54;66.92
70271;SHT31;57680;54.292;18.598;2024-02-23T13:35:14;10.49;67.38
70271;SHT31;57680;54.292;18.598;2024-02-23T13:37:41;10.41;68.54
70271;SHT31;57680;54.292;18.598;2024-02-23T13:40:08;10.34;68.31
70271;SHT31;57680;54.292;18.598;2024-02-23T13:42:34;10.33;68.43
70271;SHT31;57680;54.292;18.598;2024-02-23T13:44:59;10.27;68.11
70271;SHT31;57680;54.292;18.598;2024-02-23T13:47:25;10.33;68.47
70271;SHT31;57680;54.292;18.598;2024-02-23T13:49:50;10.24;68.14
70271;SHT31;57680;54.292;18.598;2024-02-23T13:52:15;10.22;68.51
70271;SHT31;57680;54.292;18.598;2024-02-23T13:54:41;10.21;68.61
70271;SHT31;57680;54.292;18.598;2024-02-23T13:57:06;10.20;68.14
70271;SHT31;57680;54.292;18.598;2024-02-23T13:59:31;10.14;68.60
70271;SHT31;57680;54.292;18.598;2024-02-23T14:01:57;10.08;68.30
70271;SHT31;57680;54.292;18.598;2024-02-23T14:04:22;10.07;67.76
70271;SHT31;57680;54.292;18.598;2024-02-23T14:06:47;10.04;67.97
70271;SHT31;57680;54.292;18.598;2024-02-23T14:09:13;10.05;67.78
70271;SHT31;57680;54.292;18.598;2024-02-23T14:11:38;10.00;67.90
70271;SHT31;57680;54.292;18.598;2024-02-23T14:14:04;9.94;68.53
70271;SHT31;57680;54.292;18.598;2024-02-23T14:16:29;9.87;68.85
70271;SHT31;57680;54.292;18.598;2024-02-23T14:18:54;9.79;69.13
70271;SHT31;57680;54.292;18.598;2024-02-23T14:21:20;9.69;68.78
70271;SHT31;57680;54.292;18.598;2024-02-23T14:23:45;9.56;69.66
70271;SHT31;57680;54.292;18.598;2024-02-23T14:26:10;9.47;69.62
70271;SHT31;57680;54.292;18.598;2024-02-23T14:28:36;9.42;69.45
70271;SHT31;57680;54.292;18.598;2024-02-23T14:31:01;9.39;69.45
70271;SHT31;57680;54.292;18.598;2024-02-23T14:33:26;9.40;70.32
70271;SHT31;57680;54.292;18.598;2024-02-23T14:35:52;9.36;69.53
70271;SHT31;57680;54.292;18.598;2024-02-23T14:38:17;9.38;69.31
70271;SHT31;57680;54.292;18.598;2024-02-23T14:40:43;9.38;69.74
70271;SHT31;57680;54.292;18.598;2024-02-23T14:43:08;9.38;69.45
70271;SHT31;57680;54.292;18.598;2024-02-23T14:45:34;9.35;70.05
70271;SHT31;57680;54.292;18.598;2024-02-23T14:47:59;9.35;69.96
70271;SHT31;57680;54.292;18.598;2024-02-23T14:50:24;9.31;69.60
70271;SHT31;57680;54.292;18.598;2024-02-23T14:52:50;9.29;70.02
70271;SHT31;57680;54.292;18.598;2024-02-23T14:55:15;9.24;70.10
70271;SHT31;57680;54.292;18.598;2024-02-23T14:57:41;9.18;69.34
70271;SHT31;57680;54.292;18.598;2024-02-23T15:00:06;9.12;69.75
70271;SHT31;57680;54.292;18.598;2024-02-23T15:02:32;9.10;68.85
70271;SHT31;57680;54.292;18.598;2024-02-23T15:04:57;9.10;69.55
70271;SHT31;57680;54.292;18.598;2024-02-23T15:07:23;9.04;69.74
70271;SHT31;57680;54.292;18.598;2024-02-23T15:09:48;9.01;69.50
70271;SHT31;57680;54.292;18.598;2024-02-23T15:12:13;8.98;69.49
70271;SHT31;57680;54.292;18.598;2024-02-23T15:14:39;8.95;69.41
70271;SHT31;57680;54.292;18.598;2024-02-23T15:17:04;8.92;69.67